Time;durP1;ratioP1;P1;durP2;ratioP2;P2;SDS_P1;SDS_P2;PMS_P1;PMS_P2;Temp;Humidity;BMP_temperature;BMP_pressure;BME280_temperature;BME280_humidity;BME280_pressure;Samples;Min_cycle;Max_cycle;Signal;HPM_P1;HPM_P2
2022/04/27 00:00:33;;;;;;;2.10;0.93;;;;;;;;;;5072369;28;20070;-48
2022/04/27 00:03:00;;;;;;;1.90;1.00;;;;;;;;;;5071195;28;20039;-51
2022/04/27 00:05:26;;;;;;;1.52;1.10;;;;;;;;;;5069963;28;20025;-49
2022/04/27 00:07:52;;;;;;;2.03;1.20;;;;;;;;;;5071988;28;20036;-50
2022/04/27 00:10:19;;;;;;;2.05;1.63;;;;;;;;;;5071703;28;20024;-48
2022/04/27 00:12:45;;;;;;;1.50;0.88;;;;;;;;;;5072283;28;20078;-52
2022/04/27 00:15:11;;;;;;;1.63;1.13;;;;;;;;;;5071233;28;20029;-54
2022/04/27 00:17:37;;;;;;;2.08;1.05;;;;;;;;;;5072264;28;20016;-53
2022/04/27 00:20:04;;;;;;;1.73;1.02;;;;;;;;;;5072365;28;20017;-52
2022/04/27 00:22:30;;;;;;;2.28;1.00;;;;;;;;;;5071515;28;20032;-52
2022/04/27 00:25:00;;;;;;;1.48;1.05;;;;;;;;;;5071628;28;20032;-52
2022/04/27 00:27:27;;;;;;;6.55;1.55;;;;;;;;;;5070586;28;20051;-48
2022/04/27 00:29:53;;;;;;;1.30;0.90;;;;;;;;;;5074997;28;20028;-48
2022/04/27 00:32:19;;;;;;;1.20;0.90;;;;;;;;;;5070886;28;20116;-48
2022/04/27 00:34:45;;;;;;;1.00;0.80;;;;;;;;;;5071720;28;20116;-51
2022/04/27 00:37:11;;;;;;;1.33;0.95;;;;;;;;;;5072124;28;20104;-55
2022/04/27 00:39:37;;;;;;;1.73;1.05;;;;;;;;;;5071461;28;20434;-48
2022/04/27 00:42:13;;;;;;;1.67;1.05;;;;;;;;;;5071633;28;20028;-50
2022/04/27 00:44:43;;;;;;;1.52;0.80;;;;;;;;;;5071901;28;20035;-48
2022/04/27 00:47:09;;;;;;;2.65;1.00;;;;;;;;;;5072591;28;20493;-52
2022/04/27 00:49:35;;;;;;;1.65;1.38;;;;;;;;;;5071231;28;20115;-51
2022/04/27 00:52:01;;;;;;;2.65;0.98;;;;;;;;;;5072050;28;20025;-48
2022/04/27 00:54:29;;;;;;;1.27;0.95;;;;;;;;;;5070760;28;20048;-51
2022/04/27 00:56:55;;;;;;;1.35;1.10;;;;;;;;;;5071639;28;20060;-50
2022/04/27 00:59:21;;;;;;;1.45;0.98;;;;;;;;;;5074188;28;20449;-48
2022/04/27 01:01:47;;;;;;;1.48;0.82;;;;;;;;;;5072441;28;20375;-51
2022/04/27 01:04:13;;;;;;;1.77;1.00;;;;;;;;;;5071791;28;20032;-54
2022/04/27 01:06:40;;;;;;;1.10;0.90;;;;;;;;;;5071224;28;20089;-48
2022/04/27 01:09:07;;;;;;;1.55;1.02;;;;;;;;;;5071658;28;20072;-52
2022/04/27 01:11:33;;;;;;;3.65;1.30;;;;;;;;;;5071246;28;20055;-48
2022/04/27 01:13:59;;;;;;;1.50;0.82;;;;;;;;;;5071673;28;20033;-50
2022/04/27 01:16:25;;;;;;;1.40;1.10;;;;;;;;;;5070716;28;20095;-53
2022/04/27 01:18:51;;;;;;;2.42;1.00;;;;;;;;;;5071587;28;20039;-50
2022/04/27 01:21:18;;;;;;;1.20;0.90;;;;;;;;;;5070861;28;20032;-53
2022/04/27 01:23:44;;;;;;;1.30;0.80;;;;;;;;;;5071648;28;20025;-48
2022/04/27 01:26:10;;;;;;;1.52;0.90;;;;;;;;;;5068156;28;20033;-51
2022/04/27 01:28:37;;;;;;;0.82;0.73;;;;;;;;;;5069217;28;20104;-49
2022/04/27 01:31:03;;;;;;;1.27;0.88;;;;;;;;;;5088566;28;20024;-52
2022/04/27 01:33:30;;;;;;;1.27;1.02;;;;;;;;;;5090913;28;20401;-49
2022/04/27 01:35:58;;;;;;;2.28;1.30;;;;;;;;;;5075429;28;20030;-51
2022/04/27 01:38:24;;;;;;;1.90;0.93;;;;;;;;;;5051557;28;20048;-49
2022/04/27 01:40:53;;;;;;;1.85;0.98;;;;;;;;;;5069582;28;20072;-50
2022/04/27 01:43:19;;;;;;;3.38;1.30;;;;;;;;;;5072353;28;20373;-53
2022/04/27 01:45:45;;;;;;;1.45;1.00;;;;;;;;;;5055012;28;20100;-53
2022/04/27 01:48:12;;;;;;;0.90;0.70;;;;;;;;;;5055061;28;20047;-51
2022/04/27 01:50:38;;;;;;;1.60;0.88;;;;;;;;;;5055387;28;20924;-52
2022/04/27 01:55:50;;;;;;;1.35;1.00;;;;;;;;;;5067938;28;20040;-50
2022/04/27 01:58:16;;;;;;;2.53;1.08;;;;;;;;;;5054663;28;20123;-54
2022/04/27 02:00:42;;;;;;;1.33;1.08;;;;;;;;;;5069095;28;20028;-50
2022/04/27 02:03:08;;;;;;;1.52;1.08;;;;;;;;;;5058165;28;20028;-49
2022/04/27 02:05:34;;;;;;;1.25;0.85;;;;;;;;;;5069285;28;20397;-50
2022/04/27 02:08:01;;;;;;;1.02;0.93;;;;;;;;;;5054437;28;20079;-52
2022/04/27 02:10:27;;;;;;;1.05;0.90;;;;;;;;;;5053405;28;20100;-49
2022/04/27 02:12:53;;;;;;;1.00;0.90;;;;;;;;;;5054800;28;20104;-52
2022/04/27 02:15:19;;;;;;;1.95;1.23;;;;;;;;;;5059294;28;20078;-54
2022/04/27 02:17:45;;;;;;;1.42;1.13;;;;;;;;;;5074506;28;20025;-50
2022/04/27 02:20:11;;;;;;;2.22;1.30;;;;;;;;;;5074528;28;20021;-50
2022/04/27 02:22:37;;;;;;;1.40;1.05;;;;;;;;;;5073666;28;20047;-51
2022/04/27 02:25:04;;;;;;;1.90;1.25;;;;;;;;;;5073727;28;20362;-52
2022/04/27 02:27:30;;;;;;;1.73;1.02;;;;;;;;;;5073058;28;20052;-50
2022/04/27 02:29:56;;;;;;;1.02;0.93;;;;;;;;;;5079212;28;20020;-53
2022/04/27 02:32:23;;;;;;;2.30;1.73;;;;;;;;;;5093671;28;20043;-49
2022/04/27 02:34:51;;;;;;;1.20;1.10;;;;;;;;;;5067958;28;20033;-50
2022/04/27 02:37:17;;;;;;;1.73;1.15;;;;;;;;;;5056729;28;20035;-48
2022/04/27 02:39:43;;;;;;;1.60;1.23;;;;;;;;;;5061635;28;20033;-51
2022/04/27 02:42:09;;;;;;;2.17;0.93;;;;;;;;;;5062419;28;20048;-48
2022/04/27 02:44:36;;;;;;;1.30;0.80;;;;;;;;;;5058942;28;20099;-50
2022/04/27 02:47:02;;;;;;;1.77;1.15;;;;;;;;;;5053556;28;20033;-50
2022/04/27 02:52:13;;;;;;;1.55;1.35;;;;;;;;;;5073576;28;20024;-51
2022/04/27 02:54:39;;;;;;;1.20;1.08;;;;;;;;;;5072979;28;20112;-48
2022/04/27 02:57:06;;;;;;;1.35;1.08;;;;;;;;;;5072739;28;20458;-49
2022/04/27 02:59:33;;;;;;;1.40;1.10;;;;;;;;;;5073160;28;20025;-49
2022/04/27 03:01:59;;;;;;;1.42;0.95;;;;;;;;;;5083691;28;20029;-48
2022/04/27 03:04:25;;;;;;;0.98;0.70;;;;;;;;;;5071460;28;20029;-48
2022/04/27 03:06:51;;;;;;;1.35;1.00;;;;;;;;;;5055870;28;20029;-51
2022/04/27 03:09:17;;;;;;;1.33;1.00;;;;;;;;;;5053309;28;20021;-50
2022/04/27 03:11:43;;;;;;;1.70;1.20;;;;;;;;;;5052565;28;20359;-52
2022/04/27 03:14:09;;;;;;;1.55;1.15;;;;;;;;;;5055659;28;20112;-51
2022/04/27 03:16:35;;;;;;;1.40;0.70;;;;;;;;;;5072620;28;20103;-52
2022/04/27 03:19:01;;;;;;;1.38;1.05;;;;;;;;;;5073304;28;20454;-48
2022/04/27 03:21:29;;;;;;;1.27;0.90;;;;;;;;;;5072491;28;20020;-48
2022/04/27 03:23:56;;;;;;;1.08;0.90;;;;;;;;;;5053662;28;20025;-49
2022/04/27 03:26:22;;;;;;;1.00;0.90;;;;;;;;;;5052804;28;20044;-54
2022/04/27 03:28:48;;;;;;;2.70;1.20;;;;;;;;;;5070424;28;20151;-50
2022/04/27 03:31:14;;;;;;;0.90;0.90;;;;;;;;;;5086267;28;20028;-50
2022/04/27 03:33:40;;;;;;;1.50;1.17;;;;;;;;;;5057863;28;20032;-49
2022/04/27 03:36:08;;;;;;;2.08;1.10;;;;;;;;;;5053065;28;20040;-49
2022/04/27 03:38:34;;;;;;;1.13;0.90;;;;;;;;;;5052054;28;20033;-50
2022/04/27 03:41:00;;;;;;;2.25;0.95;;;;;;;;;;5052958;28;20025;-49
2022/04/27 03:43:26;;;;;;;2.25;0.90;;;;;;;;;;5071029;28;20051;-51
2022/04/27 03:45:52;;;;;;;2.00;1.10;;;;;;;;;;5072238;28;20478;-49
2022/04/27 03:48:18;;;;;;;1.20;1.10;;;;;;;;;;5072761;28;20028;-49
2022/04/27 03:50:44;;;;;;;1.42;0.93;;;;;;;;;;5062441;28;20199;-48
2022/04/27 03:53:10;;;;;;;1.40;0.95;;;;;;;;;;5052622;28;20029;-49
2022/04/27 03:55:36;;;;;;;1.48;1.00;;;;;;;;;;5051977;28;20032;-49
2022/04/27 03:58:03;;;;;;;1.40;0.98;;;;;;;;;;5071131;28;20903;-48
2022/04/27 04:00:30;;;;;;;1.73;1.35;;;;;;;;;;5076964;28;20052;-49
2022/04/27 04:02:55;;;;;;;1.42;0.90;;;;;;;;;;5092549;28;20024;-49
2022/04/27 04:05:22;;;;;;;1.15;1.05;;;;;;;;;;5063867;28;20534;-49
2022/04/27 04:07:48;;;;;;;1.55;1.40;;;;;;;;;;5052797;28;20104;-50
2022/04/27 04:10:14;;;;;;;2.00;1.02;;;;;;;;;;5072405;28;20024;-50
2022/04/27 04:12:40;;;;;;;2.80;1.23;;;;;;;;;;5071257;28;20103;-49
2022/04/27 04:15:06;;;;;;;1.52;1.05;;;;;;;;;;5072187;28;20351;-48
2022/04/27 04:17:32;;;;;;;1.10;0.90;;;;;;;;;;5057328;28;20039;-50
2022/04/27 04:19:58;;;;;;;1.30;0.93;;;;;;;;;;5051986;28;20051;-50
2022/04/27 04:22:24;;;;;;;1.40;0.90;;;;;;;;;;5054747;28;20036;-55
2022/04/27 04:30:19;;;;;;;1.52;0.90;;;;;;;;;;5074634;28;20084;-51
2022/04/27 04:32:45;;;;;;;1.33;0.93;;;;;;;;;;5091580;28;20012;-49
2022/04/27 04:35:11;;;;;;;1.55;0.82;;;;;;;;;;5086333;28;20047;-50
2022/04/27 04:37:37;;;;;;;1.65;1.00;;;;;;;;;;5065937;28;20016;-48
2022/04/27 04:40:03;;;;;;;0.73;0.60;;;;;;;;;;5072009;28;20027;-49
2022/04/27 04:42:29;;;;;;;1.45;1.00;;;;;;;;;;5071192;28;20021;-49
2022/04/27 04:44:56;;;;;;;3.42;0.95;;;;;;;;;;5071283;28;20074;-52
2022/04/27 04:47:22;;;;;;;1.25;1.00;;;;;;;;;;5072112;28;20036;-48
2022/04/27 04:49:48;;;;;;;3.28;1.30;;;;;;;;;;5071080;28;20097;-50
2022/04/27 04:52:14;;;;;;;1.38;1.00;;;;;;;;;;5071972;28;20031;-51
2022/04/27 04:54:40;;;;;;;0.95;0.85;;;;;;;;;;5070823;28;20060;-48
2022/04/27 04:57:06;;;;;;;1.52;1.25;;;;;;;;;;5071816;28;20466;-50
2022/04/27 04:59:32;;;;;;;1.00;0.82;;;;;;;;;;5070904;28;20107;-49
2022/04/27 05:01:58;;;;;;;1.85;1.00;;;;;;;;;;5071938;28;20401;-49
2022/04/27 05:04:24;;;;;;;1.30;1.20;;;;;;;;;;5071730;28;20025;-50
2022/04/27 05:06:50;;;;;;;1.10;1.00;;;;;;;;;;5070849;28;20040;-50
2022/04/27 05:09:16;;;;;;;2.47;1.20;;;;;;;;;;5071662;28;20028;-49
2022/04/27 05:11:43;;;;;;;1.10;1.00;;;;;;;;;;5070799;28;20020;-49
2022/04/27 05:14:09;;;;;;;1.38;0.98;;;;;;;;;;5074028;28;20068;-50
2022/04/27 05:16:36;;;;;;;1.17;0.93;;;;;;;;;;5074351;28;20454;-49
2022/04/27 05:19:03;;;;;;;1.27;1.10;;;;;;;;;;5075413;28;20382;-50
2022/04/27 05:21:29;;;;;;;2.45;1.00;;;;;;;;;;5075119;28;20036;-54
2022/04/27 05:23:55;;;;;;;1.60;1.02;;;;;;;;;;5075610;28;20103;-49
2022/04/27 05:26:21;;;;;;;1.20;1.08;;;;;;;;;;5073810;28;20114;-52
2022/04/27 05:34:17;;;;;;;1.90;1.30;;;;;;;;;;5071746;28;20035;-49
2022/04/27 05:36:43;;;;;;;1.10;1.00;;;;;;;;;;5074059;28;20446;-49
2022/04/27 05:39:09;;;;;;;1.50;1.10;;;;;;;;;;5074528;28;20052;-49
2022/04/27 05:41:35;;;;;;;1.42;1.08;;;;;;;;;;5074300;28;20125;-49
2022/04/27 05:44:07;;;;;;;1.60;1.20;;;;;;;;;;5075129;28;20029;-49
2022/04/27 05:46:34;;;;;;;1.20;1.00;;;;;;;;;;5072814;28;20060;-48
2022/04/27 05:49:00;;;;;;;1.30;1.20;;;;;;;;;;5075430;28;20480;-49
2022/04/27 05:51:26;;;;;;;2.50;1.35;;;;;;;;;;5074724;28;20072;-52
2022/04/27 05:53:52;;;;;;;1.40;1.00;;;;;;;;;;5074833;28;20028;-48
2022/04/27 05:56:19;;;;;;;4.63;1.45;;;;;;;;;;5074363;28;20108;-48
2022/04/27 05:58:45;;;;;;;3.42;2.17;;;;;;;;;;5074213;28;20025;-50
2022/04/27 06:01:12;;;;;;;6.10;4.85;;;;;;;;;;5075652;28;20028;-48
2022/04/27 06:03:38;;;;;;;9.15;5.75;;;;;;;;;;5073817;28;20048;-49
2022/04/27 06:06:04;;;;;;;10.65;6.18;;;;;;;;;;5074741;28;20033;-48
2022/04/27 06:08:30;;;;;;;12.63;5.97;;;;;;;;;;5073850;28;20025;-54
2022/04/27 06:10:56;;;;;;;14.73;6.38;;;;;;;;;;5074350;28;20519;-48
2022/04/27 06:13:24;;;;;;;9.98;6.25;;;;;;;;;;5074599;28;20069;-49
2022/04/27 06:15:50;;;;;;;9.02;5.63;;;;;;;;;;5072996;28;20020;-48
2022/04/27 06:18:16;;;;;;;12.23;5.80;;;;;;;;;;5075969;28;20021;-48
2022/04/27 06:20:42;;;;;;;5.35;3.97;;;;;;;;;;5071980;28;20032;-46
2022/04/27 06:23:09;;;;;;;5.55;3.88;;;;;;;;;;5073973;28;20024;-47
2022/04/27 06:25:35;;;;;;;8.18;4.15;;;;;;;;;;5070867;28;20511;-49
2022/04/27 06:28:02;;;;;;;7.63;3.60;;;;;;;;;;5073665;28;20394;-48
2022/04/27 06:30:28;;;;;;;7.55;5.50;;;;;;;;;;5074033;28;20052;-50
2022/04/27 06:32:54;;;;;;;8.77;6.57;;;;;;;;;;5072818;28;20020;-49
2022/04/27 06:35:20;;;;;;;8.27;5.72;;;;;;;;;;5065160;28;20473;-51
2022/04/27 06:37:46;;;;;;;7.45;5.32;;;;;;;;;;5070795;28;20459;-48
2022/04/27 06:40:12;;;;;;;10.07;6.03;;;;;;;;;;5074187;28;20537;-49
2022/04/27 06:42:42;;;;;;;8.45;5.80;;;;;;;;;;5072636;28;20021;-49
2022/04/27 06:45:09;;;;;;;7.28;6.00;;;;;;;;;;5073203;28;20457;-51
2022/04/27 06:47:35;;;;;;;7.13;5.50;;;;;;;;;;5072606;28;20028;-48
2022/04/27 06:50:01;;;;;;;6.47;4.78;;;;;;;;;;5073641;28;20027;-48
2022/04/27 06:52:27;;;;;;;6.85;4.72;;;;;;;;;;5073281;28;20369;-49
2022/04/27 06:54:53;;;;;;;7.50;5.43;;;;;;;;;;5072795;28;20052;-48
2022/04/27 06:57:19;;;;;;;6.60;4.95;;;;;;;;;;5073439;28;20040;-48
2022/04/27 06:59:45;;;;;;;7.32;5.65;;;;;;;;;;5071734;28;20028;-48
2022/04/27 07:02:12;;;;;;;8.05;5.97;;;;;;;;;;5073340;28;20611;-48
2022/04/27 07:04:41;;;;;;;8.75;5.97;;;;;;;;;;5084775;28;20042;-48
2022/04/27 07:07:07;;;;;;;7.75;5.63;;;;;;;;;;5072948;28;20421;-49
2022/04/27 07:09:33;;;;;;;7.45;5.53;;;;;;;;;;5072958;28;20025;-53
2022/04/27 07:11:59;;;;;;;6.45;5.28;;;;;;;;;;5072940;28;20493;-49
2022/04/27 07:14:26;;;;;;;5.88;4.82;;;;;;;;;;5073017;28;20046;-49
2022/04/27 07:16:52;;;;;;;6.28;4.80;;;;;;;;;;5071982;28;20479;-47
2022/04/27 07:19:17;;;;;;;5.93;4.43;;;;;;;;;;5073035;28;20029;-48
2022/04/27 07:21:43;;;;;;;6.13;4.78;;;;;;;;;;5070941;28;20171;-48
2022/04/27 07:24:09;;;;;;;5.03;4.25;;;;;;;;;;5073054;28;20028;-48
2022/04/27 07:26:36;;;;;;;6.57;5.05;;;;;;;;;;5071649;28;20025;-53
2022/04/27 07:29:02;;;;;;;5.30;4.10;;;;;;;;;;5072573;28;20083;-51
2022/04/27 07:31:28;;;;;;;5.78;3.70;;;;;;;;;;5075994;28;20455;-51
2022/04/27 07:33:54;;;;;;;6.88;4.45;;;;;;;;;;5073542;28;20035;-52
2022/04/27 07:36:20;;;;;;;5.60;3.88;;;;;;;;;;5071991;28;20024;-49
2022/04/27 07:38:46;;;;;;;8.55;3.95;;;;;;;;;;5071571;28;20035;-52
2022/04/27 07:41:12;;;;;;;5.97;4.43;;;;;;;;;;5071215;28;20025;-49
2022/04/27 07:43:38;;;;;;;5.38;3.88;;;;;;;;;;5071833;28;20037;-48
2022/04/27 07:46:05;;;;;;;4.75;3.63;;;;;;;;;;5072354;28;20074;-51
2022/04/27 07:48:34;;;;;;;4.25;3.28;;;;;;;;;;5071998;28;20432;-49
2022/04/27 07:51:00;;;;;;;4.78;3.33;;;;;;;;;;5072062;28;20052;-49
2022/04/27 07:53:27;;;;;;;4.95;3.78;;;;;;;;;;5071986;28;20035;-48
2022/04/27 07:55:53;;;;;;;6.80;4.22;;;;;;;;;;5071402;28;20021;-50
2022/04/27 07:58:19;;;;;;;6.50;4.05;;;;;;;;;;5072168;28;20445;-49
2022/04/27 08:00:45;;;;;;;4.57;3.45;;;;;;;;;;5070966;28;20489;-51
2022/04/27 08:03:11;;;;;;;4.78;3.42;;;;;;;;;;5074628;28;20028;-51
2022/04/27 08:05:37;;;;;;;2.78;2.20;;;;;;;;;;5081966;28;20049;-52
2022/04/27 08:08:03;;;;;;;6.18;2.72;;;;;;;;;;5071831;28;20025;-51
2022/04/27 08:10:29;;;;;;;4.70;3.17;;;;;;;;;;5072192;28;20028;-53
2022/04/27 08:12:55;;;;;;;3.20;2.70;;;;;;;;;;5071131;28;20021;-50
2022/04/27 08:15:22;;;;;;;4.47;3.20;;;;;;;;;;5071817;28;20032;-50
2022/04/27 08:17:54;;;;;;;4.45;3.47;;;;;;;;;;5071293;28;20024;-50
2022/04/27 08:23:09;;;;;;;4.65;3.00;;;;;;;;;;5072022;28;20035;-50
2022/04/27 08:25:36;;;;;;;4.30;2.97;;;;;;;;;;5071393;28;20025;-55
2022/04/27 08:28:06;;;;;;;4.20;3.20;;;;;;;;;;5070987;28;20045;-50
2022/04/27 08:30:36;;;;;;;5.68;3.83;;;;;;;;;;5071974;28;20453;-51
2022/04/27 08:33:02;;;;;;;4.63;3.88;;;;;;;;;;5084918;28;20081;-51
2022/04/27 08:35:29;;;;;;;4.72;3.63;;;;;;;;;;5088536;28;20094;-53
2022/04/27 08:37:55;;;;;;;5.05;3.80;;;;;;;;;;5070998;28;20023;-49
2022/04/27 08:40:21;;;;;;;4.50;3.17;;;;;;;;;;5071372;28;20025;-53
2022/04/27 08:42:50;;;;;;;5.60;3.42;;;;;;;;;;5070729;28;20051;-50
2022/04/27 08:45:17;;;;;;;4.00;2.75;;;;;;;;;;5071303;28;20025;-51
2022/04/27 08:47:43;;;;;;;3.63;3.15;;;;;;;;;;5068676;28;20416;-53
2022/04/27 08:50:16;;;;;;;3.30;2.45;;;;;;;;;;5071544;28;20047;-50
2022/04/27 08:52:43;;;;;;;4.25;3.20;;;;;;;;;;5070844;28;20021;-50
2022/04/27 08:55:09;;;;;;;3.42;2.83;;;;;;;;;;5071556;28;20040;-49
2022/04/27 08:57:36;;;;;;;5.75;3.53;;;;;;;;;;5071132;28;20063;-50
2022/04/27 09:00:06;;;;;;;6.18;3.60;;;;;;;;;;5069780;28;20458;-51
2022/04/27 09:02:33;;;;;;;4.72;3.35;;;;;;;;;;5080296;28;20106;-51
2022/04/27 09:05:26;;;;;;;4.93;2.97;;;;;;;;;;5090518;28;20545;-50
2022/04/27 09:07:57;;;;;;;3.50;2.83;;;;;;;;;;5048338;28;20037;-51
2022/04/27 09:10:24;;;;;;;3.53;2.50;;;;;;;;;;5066874;28;20031;-52
2022/04/27 09:12:57;;;;;;;4.32;2.85;;;;;;;;;;5070245;28;20032;-51
2022/04/27 09:15:25;;;;;;;3.30;2.53;;;;;;;;;;5071088;28;20036;-50
2022/04/27 09:20:54;;;;;;;5.38;2.67;;;;;;;;;;5071194;28;20513;-50
2022/04/27 09:23:37;;;;;;;4.43;2.72;;;;;;;;;;5071165;28;20460;-54
2022/04/27 09:26:18;;;;;;;4.20;2.58;;;;;;;;;;5070708;28;20017;-52
2022/04/27 09:28:46;;;;;;;4.70;2.63;;;;;;;;;;5070607;28;20048;-51
2022/04/27 09:31:25;;;;;;;3.42;2.28;;;;;;;;;;5070895;28;20477;-52
2022/04/27 09:33:57;;;;;;;3.22;2.10;;;;;;;;;;5086753;28;20085;-52
2022/04/27 09:36:23;;;;;;;5.45;2.78;;;;;;;;;;5081089;28;20020;-53
2022/04/27 09:38:53;;;;;;;3.00;1.98;;;;;;;;;;5055272;28;20033;-53
2022/04/27 09:41:38;;;;;;;4.15;1.90;;;;;;;;;;5051492;28;20025;-53
2022/04/27 09:44:05;;;;;;;2.75;1.85;;;;;;;;;;5070392;28;20024;-52
2022/04/27 09:46:31;;;;;;;3.42;2.20;;;;;;;;;;5071168;28;20055;-49
2022/04/27 09:49:11;;;;;;;2.28;1.88;;;;;;;;;;5069583;28;20099;-52
2022/04/27 09:51:37;;;;;;;3.58;2.20;;;;;;;;;;5070896;28;20473;-50
2022/04/27 09:54:04;;;;;;;2.55;1.65;;;;;;;;;;5069649;28;20074;-53
2022/04/27 09:56:35;;;;;;;1.88;1.52;;;;;;;;;;5071215;28;20355;-51
2022/04/27 09:59:04;;;;;;;1.65;1.27;;;;;;;;;;5070152;28;20154;-53
2022/04/27 10:01:32;;;;;;;1.67;1.30;;;;;;;;;;5074358;28;20036;-50
2022/04/27 10:03:59;;;;;;;3.40;1.40;;;;;;;;;;5076588;28;20417;-53
2022/04/27 10:06:26;;;;;;;4.30;1.40;;;;;;;;;;5072851;28;20447;-47
2022/04/27 10:08:53;;;;;;;1.58;1.20;;;;;;;;;;5073094;28;20386;-51
2022/04/27 10:11:19;;;;;;;1.30;1.10;;;;;;;;;;5074589;28;20365;-47
2022/04/27 10:13:46;;;;;;;2.67;1.73;;;;;;;;;;5073497;28;20043;-47
2022/04/27 10:16:12;;;;;;;1.30;1.08;;;;;;;;;;5074307;28;20028;-48
2022/04/27 10:18:38;;;;;;;1.60;1.25;;;;;;;;;;5074457;28;20094;-48
2022/04/27 10:21:04;;;;;;;2.55;1.30;;;;;;;;;;5073177;28;20760;-47
2022/04/27 10:23:33;;;;;;;2.42;1.05;;;;;;;;;;5072842;28;20382;-49
2022/04/27 10:26:09;;;;;;;1.95;1.20;;;;;;;;;;5073617;28;20359;-47
2022/04/27 10:28:59;;;;;;;1.25;1.10;;;;;;;;;;5073883;28;20053;-49
2022/04/27 10:31:44;;;;;;;1.40;1.13;;;;;;;;;;5068014;28;20055;-46
2022/04/27 10:34:26;;;;;;;2.25;1.63;;;;;;;;;;5082692;28;20122;-49
2022/04/27 10:36:56;;;;;;;1.98;1.35;;;;;;;;;;5093589;28;20016;-48
2022/04/27 10:39:24;;;;;;;3.05;1.90;;;;;;;;;;5086778;28;20024;-48
2022/04/27 10:42:05;;;;;;;1.58;1.02;;;;;;;;;;5072858;28;20143;-48
2022/04/27 10:44:50;;;;;;;4.60;1.10;;;;;;;;;;5073781;28;20032;-49
2022/04/27 10:47:18;;;;;;;2.42;1.25;;;;;;;;;;5072886;28;20024;-52
2022/04/27 10:49:47;;;;;;;1.80;1.10;;;;;;;;;;5072657;28;20395;-54
2022/04/27 10:52:13;;;;;;;1.50;0.85;;;;;;;;;;5073155;28;20107;-48
2022/04/27 10:54:40;;;;;;;1.63;1.00;;;;;;;;;;5073420;28;20041;-49
2022/04/27 10:57:15;;;;;;;2.42;1.42;;;;;;;;;;5073025;28;20101;-50
2022/04/27 10:59:50;;;;;;;4.55;1.60;;;;;;;;;;5073103;28;20024;-50
2022/04/27 11:02:34;;;;;;;2.35;1.00;;;;;;;;;;5074790;28;20025;-49
2022/04/27 11:05:24;;;;;;;2.38;1.17;;;;;;;;;;5090307;28;20032;-50
2022/04/27 11:07:57;;;;;;;1.40;1.13;;;;;;;;;;5066744;28;20044;-49
2022/04/27 11:10:24;;;;;;;1.42;1.02;;;;;;;;;;5072750;28;20086;-48
2022/04/27 11:12:54;;;;;;;2.15;1.13;;;;;;;;;;5072552;28;20512;-52
2022/04/27 11:15:27;;;;;;;2.15;1.10;;;;;;;;;;5073032;28;20119;-48
2022/04/27 11:18:01;;;;;;;1.85;1.42;;;;;;;;;;5072186;28;20028;-51
2022/04/27 11:20:34;;;;;;;2.90;1.45;;;;;;;;;;5072865;28;20033;-50
2022/04/27 11:23:03;;;;;;;2.00;1.80;;;;;;;;;;5072162;28;20043;-50
2022/04/27 11:25:29;;;;;;;1.95;1.23;;;;;;;;;;5072830;28;20538;-50
2022/04/27 11:27:55;;;;;;;1.90;1.27;;;;;;;;;;5071990;28;20083;-52
2022/04/27 11:30:21;;;;;;;1.33;1.10;;;;;;;;;;5072588;28;20107;-53
2022/04/27 11:32:48;;;;;;;1.50;1.25;;;;;;;;;;5071942;28;20021;-54
2022/04/27 11:35:15;;;;;;;1.45;1.10;;;;;;;;;;5089946;28;20086;-51
2022/04/27 11:37:41;;;;;;;1.42;1.08;;;;;;;;;;5082822;28;20025;-51
2022/04/27 11:40:20;;;;;;;4.57;1.27;;;;;;;;;;5071768;28;20031;-51
2022/04/27 11:42:47;;;;;;;1.60;1.30;;;;;;;;;;5071922;28;20044;-54
2022/04/27 11:45:14;;;;;;;1.50;1.40;;;;;;;;;;5072387;28;20028;-50
2022/04/27 11:47:40;;;;;;;1.63;1.33;;;;;;;;;;5071396;28;20033;-50
2022/04/27 11:50:06;;;;;;;1.83;1.60;;;;;;;;;;5071577;28;20024;-49
2022/04/27 11:52:36;;;;;;;1.88;1.20;;;;;;;;;;5072573;28;20112;-49
2022/04/27 11:55:10;;;;;;;1.27;1.05;;;;;;;;;;5070838;28;20085;-48
2022/04/27 11:57:36;;;;;;;2.75;1.73;;;;;;;;;;5072302;28;20481;-48
2022/04/27 12:00:03;;;;;;;1.60;1.27;;;;;;;;;;5071306;28;20025;-48
2022/04/27 12:02:29;;;;;;;2.22;1.30;;;;;;;;;;5076462;28;20030;-51
2022/04/27 12:04:58;;;;;;;1.95;1.30;;;;;;;;;;5086634;28;20103;-48
2022/04/27 12:07:25;;;;;;;1.42;1.33;;;;;;;;;;5074035;28;20020;-48
2022/04/27 12:09:57;;;;;;;1.10;1.00;;;;;;;;;;5071034;28;20366;-48
2022/04/27 12:12:23;;;;;;;1.50;1.20;;;;;;;;;;5072243;28;20028;-47
2022/04/27 12:14:49;;;;;;;1.58;1.33;;;;;;;;;;5070669;28;20036;-49
2022/04/27 12:17:34;;;;;;;1.60;1.33;;;;;;;;;;5072062;28;20043;-49
2022/04/27 12:20:00;;;;;;;1.38;1.27;;;;;;;;;;5070600;28;20322;-48
2022/04/27 12:22:26;;;;;;;2.53;2.08;;;;;;;;;;5071461;28;20055;-51
2022/04/27 12:24:52;;;;;;;1.98;1.65;;;;;;;;;;5070857;28;20060;-48
2022/04/27 12:27:23;;;;;;;3.28;1.75;;;;;;;;;;5071635;28;20139;-49
2022/04/27 12:29:49;;;;;;;2.10;1.13;;;;;;;;;;5071075;28;20079;-52
2022/04/27 12:32:15;;;;;;;2.25;1.92;;;;;;;;;;5072194;28;20089;-51
2022/04/27 12:37:30;;;;;;;1.38;1.17;;;;;;;;;;5092123;28;20078;-49
2022/04/27 12:39:57;;;;;;;1.70;1.30;;;;;;;;;;5091242;28;20016;-48
2022/04/27 12:42:23;;;;;;;1.38;1.23;;;;;;;;;;5080842;28;20029;-50
2022/04/27 12:44:49;;;;;;;1.55;1.45;;;;;;;;;;5071129;28;20036;-54
2022/04/27 12:47:16;;;;;;;2.00;1.55;;;;;;;;;;5070981;28;20027;-50
2022/04/27 12:49:47;;;;;;;1.75;1.55;;;;;;;;;;5071360;28;20527;-48
2022/04/27 12:52:21;;;;;;;2.50;1.70;;;;;;;;;;5070675;28;20017;-52
2022/04/27 12:54:50;;;;;;;1.25;1.10;;;;;;;;;;5070430;28;20316;-54
2022/04/27 12:57:16;;;;;;;1.80;1.30;;;;;;;;;;5071246;28;20025;-50
2022/04/27 12:59:58;;;;;;;1.52;1.42;;;;;;;;;;5071090;28;20017;-50
2022/04/27 13:02:24;;;;;;;1.95;1.33;;;;;;;;;;5074269;28;20389;-48
2022/04/27 13:04:52;;;;;;;2.88;1.70;;;;;;;;;;5089980;28;20473;-53
2022/04/27 13:07:18;;;;;;;2.40;1.15;;;;;;;;;;5091604;28;20043;-48
2022/04/27 13:12:33;;;;;;;1.73;1.25;;;;;;;;;;5051354;28;20068;-48
2022/04/27 13:15:01;;;;;;;1.85;1.20;;;;;;;;;;5050537;28;20136;-48
2022/04/27 13:17:27;;;;;;;1.80;1.40;;;;;;;;;;5070768;28;20048;-49
2022/04/27 13:19:53;;;;;;;1.70;1.50;;;;;;;;;;5070400;28;20047;-53
2022/04/27 13:22:19;;;;;;;1.70;1.30;;;;;;;;;;5071346;28;20021;-48
2022/04/27 13:24:45;;;;;;;2.13;1.42;;;;;;;;;;5070115;28;20020;-49
2022/04/27 13:27:11;;;;;;;2.92;1.58;;;;;;;;;;5069851;28;20129;-49
2022/04/27 13:29:37;;;;;;;1.50;1.40;;;;;;;;;;5070473;28;20539;-49
2022/04/27 13:32:03;;;;;;;1.75;1.60;;;;;;;;;;5070981;28;20133;-48
2022/04/27 13:34:29;;;;;;;1.85;1.60;;;;;;;;;;5084656;28;20120;-48
2022/04/27 13:36:56;;;;;;;2.08;1.40;;;;;;;;;;5073977;28;20495;-48
2022/04/27 13:39:22;;;;;;;1.33;1.20;;;;;;;;;;5074683;28;20359;-48
2022/04/27 13:41:48;;;;;;;2.35;1.63;;;;;;;;;;5074303;28;20032;-47
2022/04/27 13:44:14;;;;;;;2.10;1.50;;;;;;;;;;5074171;28;20028;-51
2022/04/27 13:46:40;;;;;;;2.00;1.65;;;;;;;;;;5074166;28;20056;-50
2022/04/27 13:49:06;;;;;;;2.10;1.42;;;;;;;;;;5074190;28;20493;-48
2022/04/27 13:51:34;;;;;;;1.73;1.52;;;;;;;;;;5074794;28;20021;-48
2022/04/27 13:54:01;;;;;;;2.00;1.30;;;;;;;;;;5073324;28;20033;-50
2022/04/27 13:56:27;;;;;;;1.83;1.50;;;;;;;;;;5074003;28;20052;-50
2022/04/27 13:58:53;;;;;;;2.80;1.15;;;;;;;;;;5073966;28;20043;-56
2022/04/27 14:01:19;;;;;;;6.63;2.15;;;;;;;;;;5074500;28;20063;-50
2022/04/27 14:03:49;;;;;;;6.85;1.75;;;;;;;;;;5087949;28;20093;-52
2022/04/27 14:06:18;;;;;;;5.70;2.22;;;;;;;;;;5080250;28;20111;-51
2022/04/27 14:08:44;;;;;;;4.60;1.48;;;;;;;;;;5074397;28;20028;-51
2022/04/27 14:13:55;;;;;;;3.58;1.50;;;;;;;;;;5073063;28;20401;-50
2022/04/27 14:19:06;;;;;;;2.30;1.55;;;;;;;;;;5073081;28;20081;-51
2022/04/27 14:21:32;;;;;;;5.15;1.67;;;;;;;;;;5073929;28;20028;-49
2022/04/27 14:23:58;;;;;;;1.85;1.50;;;;;;;;;;5073063;28;20032;-49
2022/04/27 14:26:24;;;;;;;2.95;1.40;;;;;;;;;;5073798;28;20108;-50
2022/04/27 14:28:50;;;;;;;2.35;1.60;;;;;;;;;;5073520;28;20123;-49
2022/04/27 14:31:17;;;;;;;3.70;1.98;;;;;;;;;;5073899;28;20025;-49
2022/04/27 14:33:43;;;;;;;2.65;1.60;;;;;;;;;;5087013;28;20042;-49
2022/04/27 14:36:09;;;;;;;2.40;1.50;;;;;;;;;;5076960;28;20107;-49
2022/04/27 14:38:36;;;;;;;2.33;1.42;;;;;;;;;;5073988;28;20025;-49
2022/04/27 14:41:02;;;;;;;2.28;1.60;;;;;;;;;;5072698;28;20111;-49
2022/04/27 14:43:29;;;;;;;2.50;1.60;;;;;;;;;;5073068;28;20021;-49
2022/04/27 14:45:55;;;;;;;3.13;1.63;;;;;;;;;;5072483;28;20044;-54
2022/04/27 14:48:21;;;;;;;2.05;1.40;;;;;;;;;;5073099;28;20067;-49
2022/04/27 14:50:48;;;;;;;4.05;1.60;;;;;;;;;;5073337;28;20020;-48
2022/04/27 14:53:14;;;;;;;2.15;1.60;;;;;;;;;;5072449;28;20070;-51
2022/04/27 14:55:41;;;;;;;2.53;1.40;;;;;;;;;;5073373;28;20033;-49
2022/04/27 14:58:07;;;;;;;2.53;1.63;;;;;;;;;;5071720;28;20040;-49
2022/04/27 15:00:34;;;;;;;2.72;1.40;;;;;;;;;;5073148;28;20031;-52
2022/04/27 15:03:00;;;;;;;2.35;1.33;;;;;;;;;;5080254;28;20084;-48
2022/04/27 15:05:26;;;;;;;2.17;1.30;;;;;;;;;;5093299;28;20396;-50
2022/04/27 15:07:52;;;;;;;1.75;1.40;;;;;;;;;;5075777;28;20103;-54
2022/04/27 15:10:18;;;;;;;1.77;1.10;;;;;;;;;;5073051;28;20449;-48
2022/04/27 15:12:44;;;;;;;1.85;1.33;;;;;;;;;;5073009;28;20024;-52
2022/04/27 15:15:13;;;;;;;1.45;1.33;;;;;;;;;;5072383;28;20041;-51
2022/04/27 15:17:39;;;;;;;1.98;1.17;;;;;;;;;;5073228;28;20024;-49